sensor_id;sensor_type;location;lat;lon;timestamp;P1;durP1;ratioP1;P2;durP2;ratioP2
73557;SDS011;61829;53.286;10.434;2022-09-17T00:00:22;15.05;;;1.90;;
73557;SDS011;61829;53.286;10.434;2022-09-17T00:03:29;12.73;;;2.30;;
73557;SDS011;61829;53.286;10.434;2022-09-17T00:07:07;12.98;;;2.10;;
73557;SDS011;61829;53.286;10.434;2022-09-17T00:11:07;10.23;;;1.70;;
73557;SDS011;61829;53.286;10.434;2022-09-17T00:14:36;12.15;;;1.65;;
73557;SDS011;61829;53.286;10.434;2022-09-17T00:18:09;9.88;;;1.88;;
73557;SDS011;61829;53.286;10.434;2022-09-17T00:22:03;8.25;;;1.98;;
73557;SDS011;61829;53.286;10.434;2022-09-17T00:25:53;14.05;;;1.67;;
73557;SDS011;61829;53.286;10.434;2022-09-17T00:30:12;13.13;;;1.92;;
73557;SDS011;61829;53.286;10.434;2022-09-17T00:34:09;12.68;;;2.50;;
73557;SDS011;61829;53.286;10.434;2022-09-17T00:42:32;12.45;;;2.30;;
73557;SDS011;61829;53.286;10.434;2022-09-17T00:53:27;5.97;;;1.50;;
73557;SDS011;61829;53.286;10.434;2022-09-17T00:56:44;9.63;;;2.30;;
73557;SDS011;61829;53.286;10.434;2022-09-17T01:00:41;12.57;;;2.55;;
73557;SDS011;61829;53.286;10.434;2022-09-17T01:03:45;14.18;;;2.10;;
73557;SDS011;61829;53.286;10.434;2022-09-17T01:19:03;15.93;;;2.10;;
73557;SDS011;61829;53.286;10.434;2022-09-17T01:32:51;10.88;;;1.63;;
73557;SDS011;61829;53.286;10.434;2022-09-17T01:37:13;18.17;;;2.28;;
73557;SDS011;61829;53.286;10.434;2022-09-17T01:51:52;7.90;;;1.83;;
73557;SDS011;61829;53.286;10.434;2022-09-17T01:55:42;9.10;;;1.40;;
73557;SDS011;61829;53.286;10.434;2022-09-17T01:58:52;13.00;;;1.73;;
73557;SDS011;61829;53.286;10.434;2022-09-17T02:12:22;11.85;;;2.00;;
73557;SDS011;61829;53.286;10.434;2022-09-17T02:16:02;12.30;;;2.28;;
73557;SDS011;61829;53.286;10.434;2022-09-17T02:19:38;11.68;;;1.83;;
73557;SDS011;61829;53.286;10.434;2022-09-17T02:23:19;11.07;;;1.90;;
73557;SDS011;61829;53.286;10.434;2022-09-17T02:30:38;9.70;;;2.08;;
73557;SDS011;61829;53.286;10.434;2022-09-17T02:38:24;9.95;;;1.50;;
73557;SDS011;61829;53.286;10.434;2022-09-17T02:49:23;13.38;;;1.88;;
73557;SDS011;61829;53.286;10.434;2022-09-17T02:54:41;9.20;;;1.45;;
73557;SDS011;61829;53.286;10.434;2022-09-17T02:57:22;6.47;;;1.25;;
73557;SDS011;61829;53.286;10.434;2022-09-17T03:00:00;9.38;;;1.55;;
73557;SDS011;61829;53.286;10.434;2022-09-17T03:02:39;12.20;;;2.00;;
73557;SDS011;61829;53.286;10.434;2022-09-17T03:05:10;12.43;;;1.80;;
73557;SDS011;61829;53.286;10.434;2022-09-17T03:07:38;10.18;;;1.67;;
73557;SDS011;61829;53.286;10.434;2022-09-17T03:10:05;12.90;;;1.67;;
73557;SDS011;61829;53.286;10.434;2022-09-17T03:12:31;13.73;;;1.70;;
73557;SDS011;61829;53.286;10.434;2022-09-17T03:14:57;9.85;;;1.30;;
73557;SDS011;61829;53.286;10.434;2022-09-17T03:17:23;6.10;;;1.50;;
73557;SDS011;61829;53.286;10.434;2022-09-17T03:19:49;12.73;;;1.50;;
73557;SDS011;61829;53.286;10.434;2022-09-17T03:22:15;12.38;;;1.60;;
73557;SDS011;61829;53.286;10.434;2022-09-17T03:24:42;10.50;;;1.60;;
73557;SDS011;61829;53.286;10.434;2022-09-17T03:27:08;9.13;;;1.70;;
73557;SDS011;61829;53.286;10.434;2022-09-17T03:29:35;14.35;;;1.70;;
73557;SDS011;61829;53.286;10.434;2022-09-17T03:32:01;8.40;;;1.30;;
73557;SDS011;61829;53.286;10.434;2022-09-17T03:34:27;12.45;;;1.55;;
73557;SDS011;61829;53.286;10.434;2022-09-17T03:36:53;5.68;;;1.33;;
73557;SDS011;61829;53.286;10.434;2022-09-17T03:39:19;12.98;;;2.95;;
73557;SDS011;61829;53.286;10.434;2022-09-17T03:41:45;11.65;;;2.70;;
73557;SDS011;61829;53.286;10.434;2022-09-17T03:44:11;10.32;;;1.50;;
73557;SDS011;61829;53.286;10.434;2022-09-17T03:46:37;11.55;;;1.33;;
73557;SDS011;61829;53.286;10.434;2022-09-17T03:49:03;10.27;;;2.10;;
73557;SDS011;61829;53.286;10.434;2022-09-17T03:51:29;10.35;;;1.67;;
73557;SDS011;61829;53.286;10.434;2022-09-17T03:53:55;11.43;;;2.15;;
73557;SDS011;61829;53.286;10.434;2022-09-17T03:56:21;9.10;;;1.45;;
73557;SDS011;61829;53.286;10.434;2022-09-17T03:58:48;9.45;;;1.17;;
73557;SDS011;61829;53.286;10.434;2022-09-17T04:01:14;13.05;;;2.50;;
73557;SDS011;61829;53.286;10.434;2022-09-17T04:03:40;5.95;;;1.30;;
73557;SDS011;61829;53.286;10.434;2022-09-17T04:06:06;7.22;;;1.20;;
73557;SDS011;61829;53.286;10.434;2022-09-17T04:08:35;9.38;;;1.20;;
73557;SDS011;61829;53.286;10.434;2022-09-17T04:11:02;7.65;;;1.23;;
73557;SDS011;61829;53.286;10.434;2022-09-17T04:13:28;7.60;;;1.63;;
73557;SDS011;61829;53.286;10.434;2022-09-17T04:15:54;13.68;;;1.73;;
73557;SDS011;61829;53.286;10.434;2022-09-17T04:18:20;9.27;;;1.40;;
73557;SDS011;61829;53.286;10.434;2022-09-17T04:20:46;7.85;;;1.30;;
73557;SDS011;61829;53.286;10.434;2022-09-17T04:23:12;9.60;;;1.40;;
73557;SDS011;61829;53.286;10.434;2022-09-17T04:25:37;6.35;;;1.10;;
73557;SDS011;61829;53.286;10.434;2022-09-17T04:28:04;13.77;;;1.48;;
73557;SDS011;61829;53.286;10.434;2022-09-17T04:30:30;5.65;;;1.30;;
73557;SDS011;61829;53.286;10.434;2022-09-17T04:32:56;9.73;;;1.40;;
73557;SDS011;61829;53.286;10.434;2022-09-17T04:35:23;9.18;;;1.42;;
73557;SDS011;61829;53.286;10.434;2022-09-17T04:37:56;7.20;;;1.05;;
73557;SDS011;61829;53.286;10.434;2022-09-17T04:40:23;10.77;;;1.60;;
73557;SDS011;61829;53.286;10.434;2022-09-17T04:42:53;7.65;;;1.30;;
73557;SDS011;61829;53.286;10.434;2022-09-17T04:45:28;8.05;;;1.60;;
73557;SDS011;61829;53.286;10.434;2022-09-17T04:47:58;8.20;;;1.40;;
73557;SDS011;61829;53.286;10.434;2022-09-17T04:50:23;4.88;;;1.40;;
73557;SDS011;61829;53.286;10.434;2022-09-17T04:52:49;6.63;;;1.20;;
73557;SDS011;61829;53.286;10.434;2022-09-17T04:55:16;6.63;;;1.63;;
73557;SDS011;61829;53.286;10.434;2022-09-17T04:57:48;6.82;;;1.30;;
73557;SDS011;61829;53.286;10.434;2022-09-17T05:00:16;5.43;;;1.20;;
73557;SDS011;61829;53.286;10.434;2022-09-17T05:02:46;5.40;;;0.70;;
73557;SDS011;61829;53.286;10.434;2022-09-17T05:05:14;9.43;;;1.70;;
73557;SDS011;61829;53.286;10.434;2022-09-17T05:07:41;5.80;;;1.00;;
73557;SDS011;61829;53.286;10.434;2022-09-17T05:10:08;9.35;;;1.95;;
73557;SDS011;61829;53.286;10.434;2022-09-17T05:12:35;6.07;;;1.08;;
73557;SDS011;61829;53.286;10.434;2022-09-17T05:15:01;8.88;;;1.52;;
73557;SDS011;61829;53.286;10.434;2022-09-17T05:17:28;4.28;;;1.13;;
73557;SDS011;61829;53.286;10.434;2022-09-17T05:19:54;8.57;;;1.48;;
73557;SDS011;61829;53.286;10.434;2022-09-17T05:22:20;8.70;;;1.55;;
73557;SDS011;61829;53.286;10.434;2022-09-17T05:24:46;9.20;;;1.63;;
73557;SDS011;61829;53.286;10.434;2022-09-17T05:27:13;8.32;;;1.60;;
73557;SDS011;61829;53.286;10.434;2022-09-17T05:29:39;8.00;;;1.33;;
73557;SDS011;61829;53.286;10.434;2022-09-17T05:32:05;8.82;;;1.30;;
73557;SDS011;61829;53.286;10.434;2022-09-17T05:34:32;7.13;;;1.38;;
73557;SDS011;61829;53.286;10.434;2022-09-17T05:36:57;12.75;;;1.60;;
73557;SDS011;61829;53.286;10.434;2022-09-17T05:39:24;6.72;;;1.20;;
73557;SDS011;61829;53.286;10.434;2022-09-17T05:41:53;9.40;;;1.90;;
73557;SDS011;61829;53.286;10.434;2022-09-17T05:44:21;8.80;;;1.40;;
73557;SDS011;61829;53.286;10.434;2022-09-17T05:46:48;5.97;;;1.10;;
73557;SDS011;61829;53.286;10.434;2022-09-17T05:49:17;7.57;;;1.50;;
73557;SDS011;61829;53.286;10.434;2022-09-17T05:51:43;7.07;;;1.55;;
73557;SDS011;61829;53.286;10.434;2022-09-17T05:54:09;6.00;;;1.13;;
73557;SDS011;61829;53.286;10.434;2022-09-17T05:56:35;6.38;;;1.00;;
73557;SDS011;61829;53.286;10.434;2022-09-17T05:59:01;8.95;;;1.10;;
73557;SDS011;61829;53.286;10.434;2022-09-17T06:01:28;5.40;;;1.08;;
73557;SDS011;61829;53.286;10.434;2022-09-17T06:03:54;7.90;;;1.70;;
73557;SDS011;61829;53.286;10.434;2022-09-17T06:06:20;5.78;;;1.20;;
73557;SDS011;61829;53.286;10.434;2022-09-17T06:08:46;9.05;;;1.20;;
73557;SDS011;61829;53.286;10.434;2022-09-17T06:11:12;3.53;;;0.95;;
73557;SDS011;61829;53.286;10.434;2022-09-17T06:13:38;3.72;;;0.90;;
73557;SDS011;61829;53.286;10.434;2022-09-17T06:16:04;6.50;;;1.33;;
73557;SDS011;61829;53.286;10.434;2022-09-17T06:18:30;10.85;;;1.48;;
73557;SDS011;61829;53.286;10.434;2022-09-17T06:20:58;7.07;;;1.00;;
73557;SDS011;61829;53.286;10.434;2022-09-17T06:23:31;5.88;;;1.13;;
73557;SDS011;61829;53.286;10.434;2022-09-17T06:26:02;5.63;;;1.20;;
73557;SDS011;61829;53.286;10.434;2022-09-17T06:28:29;8.80;;;1.63;;
73557;SDS011;61829;53.286;10.434;2022-09-17T06:30:58;7.05;;;1.17;;
73557;SDS011;61829;53.286;10.434;2022-09-17T06:33:26;5.57;;;1.20;;
73557;SDS011;61829;53.286;10.434;2022-09-17T06:35:56;5.68;;;1.10;;
73557;SDS011;61829;53.286;10.434;2022-09-17T06:38:26;7.45;;;1.17;;
73557;SDS011;61829;53.286;10.434;2022-09-17T06:40:53;10.77;;;1.92;;
73557;SDS011;61829;53.286;10.434;2022-09-17T06:43:20;7.90;;;1.23;;
73557;SDS011;61829;53.286;10.434;2022-09-17T06:45:53;5.65;;;1.23;;
73557;SDS011;61829;53.286;10.434;2022-09-17T06:48:23;10.00;;;1.30;;
73557;SDS011;61829;53.286;10.434;2022-09-17T06:50:50;10.30;;;1.50;;
73557;SDS011;61829;53.286;10.434;2022-09-17T06:53:19;8.77;;;1.45;;
73557;SDS011;61829;53.286;10.434;2022-09-17T06:55:46;6.30;;;1.20;;
73557;SDS011;61829;53.286;10.434;2022-09-17T06:58:12;4.95;;;1.00;;
73557;SDS011;61829;53.286;10.434;2022-09-17T07:00:38;14.88;;;1.83;;
73557;SDS011;61829;53.286;10.434;2022-09-17T07:03:04;10.82;;;1.02;;
73557;SDS011;61829;53.286;10.434;2022-09-17T07:05:30;8.27;;;1.10;;
73557;SDS011;61829;53.286;10.434;2022-09-17T07:07:59;16.08;;;1.52;;
73557;SDS011;61829;53.286;10.434;2022-09-17T07:10:30;8.02;;;1.65;;
73557;SDS011;61829;53.286;10.434;2022-09-17T07:12:56;9.57;;;1.30;;
73557;SDS011;61829;53.286;10.434;2022-09-17T07:15:23;7.82;;;1.20;;
73557;SDS011;61829;53.286;10.434;2022-09-17T07:17:49;9.07;;;1.20;;
73557;SDS011;61829;53.286;10.434;2022-09-17T07:20:16;9.65;;;1.30;;
73557;SDS011;61829;53.286;10.434;2022-09-17T07:22:41;9.95;;;1.92;;
73557;SDS011;61829;53.286;10.434;2022-09-17T07:25:09;6.30;;;1.40;;
73557;SDS011;61829;53.286;10.434;2022-09-17T07:27:36;9.15;;;1.65;;
73557;SDS011;61829;53.286;10.434;2022-09-17T07:30:02;7.07;;;1.40;;
73557;SDS011;61829;53.286;10.434;2022-09-17T07:32:29;11.10;;;1.17;;
73557;SDS011;61829;53.286;10.434;2022-09-17T07:34:55;7.13;;;1.35;;
73557;SDS011;61829;53.286;10.434;2022-09-17T07:37:22;9.35;;;1.42;;
73557;SDS011;61829;53.286;10.434;2022-09-17T07:39:48;6.82;;;1.30;;
73557;SDS011;61829;53.286;10.434;2022-09-17T07:42:14;8.27;;;1.52;;
73557;SDS011;61829;53.286;10.434;2022-09-17T07:44:39;5.30;;;1.40;;
73557;SDS011;61829;53.286;10.434;2022-09-17T07:47:06;6.97;;;1.40;;
73557;SDS011;61829;53.286;10.434;2022-09-17T07:49:31;6.88;;;1.40;;
73557;SDS011;61829;53.286;10.434;2022-09-17T07:51:57;6.90;;;1.35;;
73557;SDS011;61829;53.286;10.434;2022-09-17T07:54:29;7.45;;;1.38;;
73557;SDS011;61829;53.286;10.434;2022-09-17T07:56:56;6.93;;;1.30;;
73557;SDS011;61829;53.286;10.434;2022-09-17T07:59:22;8.13;;;1.13;;
73557;SDS011;61829;53.286;10.434;2022-09-17T08:01:48;4.32;;;1.10;;
73557;SDS011;61829;53.286;10.434;2022-09-17T08:04:15;5.78;;;1.20;;
73557;SDS011;61829;53.286;10.434;2022-09-17T08:06:41;9.20;;;1.55;;
73557;SDS011;61829;53.286;10.434;2022-09-17T08:09:07;6.60;;;1.10;;
73557;SDS011;61829;53.286;10.434;2022-09-17T08:11:35;5.90;;;1.30;;
73557;SDS011;61829;53.286;10.434;2022-09-17T08:14:01;5.25;;;1.77;;
73557;SDS011;61829;53.286;10.434;2022-09-17T08:16:27;6.82;;;1.48;;
73557;SDS011;61829;53.286;10.434;2022-09-17T08:18:55;6.25;;;1.48;;
73557;SDS011;61829;53.286;10.434;2022-09-17T08:21:22;7.05;;;1.20;;
73557;SDS011;61829;53.286;10.434;2022-09-17T08:23:48;9.48;;;1.25;;
73557;SDS011;61829;53.286;10.434;2022-09-17T08:26:18;8.18;;;1.55;;
73557;SDS011;61829;53.286;10.434;2022-09-17T08:28:49;6.68;;;1.17;;
73557;SDS011;61829;53.286;10.434;2022-09-17T08:31:24;5.60;;;1.27;;
73557;SDS011;61829;53.286;10.434;2022-09-17T08:33:54;5.80;;;1.10;;
73557;SDS011;61829;53.286;10.434;2022-09-17T08:36:20;4.35;;;1.00;;
73557;SDS011;61829;53.286;10.434;2022-09-17T08:38:51;6.47;;;1.38;;
73557;SDS011;61829;53.286;10.434;2022-09-17T08:44:32;4.15;;;1.00;;
73557;SDS011;61829;53.286;10.434;2022-09-17T08:47:03;4.85;;;1.30;;
73557;SDS011;61829;53.286;10.434;2022-09-17T08:49:56;6.47;;;1.00;;
73557;SDS011;61829;53.286;10.434;2022-09-17T08:55:31;6.05;;;1.40;;
73557;SDS011;61829;53.286;10.434;2022-09-17T09:01:01;5.35;;;1.20;;
73557;SDS011;61829;53.286;10.434;2022-09-17T09:06:26;3.42;;;0.93;;
73557;SDS011;61829;53.286;10.434;2022-09-17T09:08:56;5.13;;;1.10;;
73557;SDS011;61829;53.286;10.434;2022-09-17T09:11:28;4.90;;;1.02;;
73557;SDS011;61829;53.286;10.434;2022-09-17T09:16:30;7.38;;;1.05;;
73557;SDS011;61829;53.286;10.434;2022-09-17T09:19:00;5.68;;;1.00;;
73557;SDS011;61829;53.286;10.434;2022-09-17T09:21:45;5.32;;;1.10;;
73557;SDS011;61829;53.286;10.434;2022-09-17T09:27:02;3.80;;;1.00;;
73557;SDS011;61829;53.286;10.434;2022-09-17T09:35:20;4.47;;;0.90;;
73557;SDS011;61829;53.286;10.434;2022-09-17T09:37:51;2.53;;;0.80;;
73557;SDS011;61829;53.286;10.434;2022-09-17T09:40:32;4.22;;;0.90;;
73557;SDS011;61829;53.286;10.434;2022-09-17T09:51:54;3.22;;;0.95;;
73557;SDS011;61829;53.286;10.434;2022-09-17T09:54:43;4.70;;;1.10;;
73557;SDS011;61829;53.286;10.434;2022-09-17T09:57:44;3.92;;;0.80;;
73557;SDS011;61829;53.286;10.434;2022-09-17T10:00:29;4.53;;;0.90;;
73557;SDS011;61829;53.286;10.434;2022-09-17T10:05:56;6.90;;;1.20;;
73557;SDS011;61829;53.286;10.434;2022-09-17T10:08:25;6.57;;;0.95;;
73557;SDS011;61829;53.286;10.434;2022-09-17T10:10:54;6.30;;;1.20;;
73557;SDS011;61829;53.286;10.434;2022-09-17T10:13:22;5.18;;;1.10;;
73557;SDS011;61829;53.286;10.434;2022-09-17T10:15:50;4.28;;;0.90;;
73557;SDS011;61829;53.286;10.434;2022-09-17T10:18:21;2.20;;;0.57;;
73557;SDS011;61829;53.286;10.434;2022-09-17T10:20:56;3.22;;;0.73;;
73557;SDS011;61829;53.286;10.434;2022-09-17T10:23:25;2.83;;;0.80;;
73557;SDS011;61829;53.286;10.434;2022-09-17T10:26:00;4.35;;;0.80;;
73557;SDS011;61829;53.286;10.434;2022-09-17T10:28:32;1.95;;;0.60;;
73557;SDS011;61829;53.286;10.434;2022-09-17T10:31:05;1.92;;;0.52;;
73557;SDS011;61829;53.286;10.434;2022-09-17T10:42:03;1.27;;;0.50;;
73557;SDS011;61829;53.286;10.434;2022-09-17T10:44:36;2.58;;;0.70;;
73557;SDS011;61829;53.286;10.434;2022-09-17T10:47:13;1.85;;;0.70;;
73557;SDS011;61829;53.286;10.434;2022-09-17T10:52:31;3.40;;;0.70;;
73557;SDS011;61829;53.286;10.434;2022-09-17T11:00:27;0.73;;;0.30;;
73557;SDS011;61829;53.286;10.434;2022-09-17T11:03:09;1.35;;;0.38;;
73557;SDS011;61829;53.286;10.434;2022-09-17T11:20:19;2.30;;;0.50;;
73557;SDS011;61829;53.286;10.434;2022-09-17T11:33:59;1.10;;;0.40;;
73557;SDS011;61829;53.286;10.434;2022-09-17T11:39:48;1.08;;;0.40;;
73557;SDS011;61829;53.286;10.434;2022-09-17T11:42:27;1.90;;;0.50;;
73557;SDS011;61829;53.286;10.434;2022-09-17T11:45:09;2.33;;;0.70;;
73557;SDS011;61829;53.286;10.434;2022-09-17T11:47:50;2.05;;;0.65;;
73557;SDS011;61829;53.286;10.434;2022-09-17T11:55:28;3.15;;;0.70;;
73557;SDS011;61829;53.286;10.434;2022-09-17T11:58:03;2.97;;;0.70;;
73557;SDS011;61829;53.286;10.434;2022-09-17T12:01:08;2.40;;;0.70;;
73557;SDS011;61829;53.286;10.434;2022-09-17T12:03:57;2.10;;;0.70;;
73557;SDS011;61829;53.286;10.434;2022-09-17T12:06:27;2.50;;;0.80;;
73557;SDS011;61829;53.286;10.434;2022-09-17T12:09:09;3.40;;;0.90;;
73557;SDS011;61829;53.286;10.434;2022-09-17T12:14:25;2.72;;;0.75;;
73557;SDS011;61829;53.286;10.434;2022-09-17T12:17:01;0.85;;;0.70;;
73557;SDS011;61829;53.286;10.434;2022-09-17T12:24:36;4.53;;;1.33;;
73557;SDS011;61829;53.286;10.434;2022-09-17T12:27:08;3.70;;;0.80;;
73557;SDS011;61829;53.286;10.434;2022-09-17T12:44:16;2.78;;;0.77;;
73557;SDS011;61829;53.286;10.434;2022-09-17T12:47:08;2.17;;;0.77;;
73557;SDS011;61829;53.286;10.434;2022-09-17T12:49:40;3.72;;;0.73;;
73557;SDS011;61829;53.286;10.434;2022-09-17T12:52:38;3.90;;;0.80;;
73557;SDS011;61829;53.286;10.434;2022-09-17T13:00:26;4.15;;;0.82;;
73557;SDS011;61829;53.286;10.434;2022-09-17T13:03:28;2.53;;;0.90;;
73557;SDS011;61829;53.286;10.434;2022-09-17T13:17:32;2.28;;;0.80;;
73557;SDS011;61829;53.286;10.434;2022-09-17T13:23:06;4.22;;;0.85;;
73557;SDS011;61829;53.286;10.434;2022-09-17T13:25:33;3.28;;;0.68;;
73557;SDS011;61829;53.286;10.434;2022-09-17T13:28:14;3.70;;;1.00;;
73557;SDS011;61829;53.286;10.434;2022-09-17T13:30:57;7.38;;;1.58;;
73557;SDS011;61829;53.286;10.434;2022-09-17T13:36:39;5.43;;;0.93;;
73557;SDS011;61829;53.286;10.434;2022-09-17T13:39:09;3.47;;;0.70;;
73557;SDS011;61829;53.286;10.434;2022-09-17T13:45:29;4.72;;;0.80;;
73557;SDS011;61829;53.286;10.434;2022-09-17T13:48:01;4.63;;;1.15;;
73557;SDS011;61829;53.286;10.434;2022-09-17T13:50:39;6.47;;;1.80;;
73557;SDS011;61829;53.286;10.434;2022-09-17T14:01:15;5.97;;;0.93;;
73557;SDS011;61829;53.286;10.434;2022-09-17T14:09:53;3.85;;;0.93;;
73557;SDS011;61829;53.286;10.434;2022-09-17T14:21:03;3.15;;;1.02;;
73557;SDS011;61829;53.286;10.434;2022-09-17T14:24:19;3.47;;;0.80;;
73557;SDS011;61829;53.286;10.434;2022-09-17T14:29:36;4.53;;;0.95;;
73557;SDS011;61829;53.286;10.434;2022-09-17T14:35:36;2.67;;;0.75;;
73557;SDS011;61829;53.286;10.434;2022-09-17T14:46:28;3.10;;;0.80;;
73557;SDS011;61829;53.286;10.434;2022-09-17T14:51:53;3.50;;;1.23;;
73557;SDS011;61829;53.286;10.434;2022-09-17T14:57:53;5.85;;;1.45;;
73557;SDS011;61829;53.286;10.434;2022-09-17T15:00:25;3.25;;;0.80;;
73557;SDS011;61829;53.286;10.434;2022-09-17T15:02:58;3.00;;;0.98;;
73557;SDS011;61829;53.286;10.434;2022-09-17T15:10:30;6.93;;;0.85;;
73557;SDS011;61829;53.286;10.434;2022-09-17T15:12:57;4.57;;;0.98;;
73557;SDS011;61829;53.286;10.434;2022-09-17T15:15:24;4.80;;;0.90;;
73557;SDS011;61829;53.286;10.434;2022-09-17T15:17:51;6.40;;;1.40;;
73557;SDS011;61829;53.286;10.434;2022-09-17T15:20:20;3.95;;;0.80;;
73557;SDS011;61829;53.286;10.434;2022-09-17T15:23:07;2.70;;;0.77;;
73557;SDS011;61829;53.286;10.434;2022-09-17T15:25:40;8.02;;;1.50;;
73557;SDS011;61829;53.286;10.434;2022-09-17T15:30:54;3.80;;;1.27;;
73557;SDS011;61829;53.286;10.434;2022-09-17T15:33:21;4.40;;;0.90;;
73557;SDS011;61829;53.286;10.434;2022-09-17T15:38:40;2.28;;;0.90;;
73557;SDS011;61829;53.286;10.434;2022-09-17T15:46:39;2.30;;;0.80;;
73557;SDS011;61829;53.286;10.434;2022-09-17T15:49:23;5.75;;;1.50;;
73557;SDS011;61829;53.286;10.434;2022-09-17T15:54:47;6.90;;;1.38;;
73557;SDS011;61829;53.286;10.434;2022-09-17T15:57:13;4.35;;;1.30;;
73557;SDS011;61829;53.286;10.434;2022-09-17T15:59:41;3.58;;;1.30;;
73557;SDS011;61829;53.286;10.434;2022-09-17T16:02:24;3.70;;;1.40;;
73557;SDS011;61829;53.286;10.434;2022-09-17T16:05:23;5.18;;;1.42;;
73557;SDS011;61829;53.286;10.434;2022-09-17T16:07:50;3.78;;;1.40;;
73557;SDS011;61829;53.286;10.434;2022-09-17T16:10:16;2.97;;;1.17;;
73557;SDS011;61829;53.286;10.434;2022-09-17T16:15:13;4.43;;;1.80;;
73557;SDS011;61829;53.286;10.434;2022-09-17T16:17:43;2.80;;;1.45;;
73557;SDS011;61829;53.286;10.434;2022-09-17T16:20:22;1.27;;;0.70;;
73557;SDS011;61829;53.286;10.434;2022-09-17T16:22:50;3.42;;;1.20;;
73557;SDS011;61829;53.286;10.434;2022-09-17T16:25:21;4.53;;;2.42;;
73557;SDS011;61829;53.286;10.434;2022-09-17T16:28:02;4.40;;;1.10;;
73557;SDS011;61829;53.286;10.434;2022-09-17T16:30:31;4.55;;;1.10;;
73557;SDS011;61829;53.286;10.434;2022-09-17T16:33:02;5.75;;;1.50;;
73557;SDS011;61829;53.286;10.434;2022-09-17T16:35:30;4.07;;;1.23;;
73557;SDS011;61829;53.286;10.434;2022-09-17T16:37:56;3.38;;;1.70;;
73557;SDS011;61829;53.286;10.434;2022-09-17T16:40:23;5.28;;;1.52;;
73557;SDS011;61829;53.286;10.434;2022-09-17T16:42:52;3.45;;;1.30;;
73557;SDS011;61829;53.286;10.434;2022-09-17T16:45:19;5.30;;;1.73;;
73557;SDS011;61829;53.286;10.434;2022-09-17T16:47:45;5.47;;;1.15;;
73557;SDS011;61829;53.286;10.434;2022-09-17T16:50:12;2.72;;;1.40;;
73557;SDS011;61829;53.286;10.434;2022-09-17T16:52:41;3.03;;;1.17;;
73557;SDS011;61829;53.286;10.434;2022-09-17T16:55:10;5.80;;;1.58;;
73557;SDS011;61829;53.286;10.434;2022-09-17T16:57:38;4.75;;;1.30;;
73557;SDS011;61829;53.286;10.434;2022-09-17T17:02:38;4.40;;;1.20;;
73557;SDS011;61829;53.286;10.434;2022-09-17T17:05:05;4.82;;;1.08;;
73557;SDS011;61829;53.286;10.434;2022-09-17T17:07:34;5.28;;;1.30;;
73557;SDS011;61829;53.286;10.434;2022-09-17T17:10:02;3.85;;;1.25;;
73557;SDS011;61829;53.286;10.434;2022-09-17T17:12:34;3.30;;;1.20;;
73557;SDS011;61829;53.286;10.434;2022-09-17T17:15:07;3.15;;;1.35;;
73557;SDS011;61829;53.286;10.434;2022-09-17T17:17:35;4.55;;;1.05;;
73557;SDS011;61829;53.286;10.434;2022-09-17T17:20:06;3.90;;;1.20;;
73557;SDS011;61829;53.286;10.434;2022-09-17T17:22:37;3.38;;;1.00;;
73557;SDS011;61829;53.286;10.434;2022-09-17T17:25:10;5.18;;;1.73;;
73557;SDS011;61829;53.286;10.434;2022-09-17T17:27:39;2.15;;;1.10;;
73557;SDS011;61829;53.286;10.434;2022-09-17T17:30:08;4.07;;;1.17;;
73557;SDS011;61829;53.286;10.434;2022-09-17T17:32:36;5.03;;;1.45;;
73557;SDS011;61829;53.286;10.434;2022-09-17T17:35:03;5.93;;;2.53;;
73557;SDS011;61829;53.286;10.434;2022-09-17T17:37:32;3.15;;;1.27;;
73557;SDS011;61829;53.286;10.434;2022-09-17T17:40:00;2.85;;;1.40;;
73557;SDS011;61829;53.286;10.434;2022-09-17T17:42:33;4.47;;;1.27;;
73557;SDS011;61829;53.286;10.434;2022-09-17T17:45:04;3.47;;;1.45;;
73557;SDS011;61829;53.286;10.434;2022-09-17T17:47:32;2.75;;;1.17;;
73557;SDS011;61829;53.286;10.434;2022-09-17T17:49:58;2.50;;;1.15;;
73557;SDS011;61829;53.286;10.434;2022-09-17T17:52:25;4.95;;;1.10;;
73557;SDS011;61829;53.286;10.434;2022-09-17T17:54:52;5.13;;;1.60;;
73557;SDS011;61829;53.286;10.434;2022-09-17T17:57:19;2.95;;;1.25;;
73557;SDS011;61829;53.286;10.434;2022-09-17T17:59:47;3.08;;;1.50;;
73557;SDS011;61829;53.286;10.434;2022-09-17T18:02:13;4.03;;;1.30;;
73557;SDS011;61829;53.286;10.434;2022-09-17T18:04:40;3.15;;;1.35;;
73557;SDS011;61829;53.286;10.434;2022-09-17T18:07:06;3.78;;;1.55;;
73557;SDS011;61829;53.286;10.434;2022-09-17T18:09:32;4.20;;;1.40;;
73557;SDS011;61829;53.286;10.434;2022-09-17T18:11:59;4.13;;;1.30;;
73557;SDS011;61829;53.286;10.434;2022-09-17T18:14:25;7.43;;;1.42;;
73557;SDS011;61829;53.286;10.434;2022-09-17T18:16:51;4.38;;;1.00;;
73557;SDS011;61829;53.286;10.434;2022-09-17T18:19:18;9.73;;;1.50;;
73557;SDS011;61829;53.286;10.434;2022-09-17T18:21:44;2.90;;;1.23;;
73557;SDS011;61829;53.286;10.434;2022-09-17T18:24:10;4.60;;;1.60;;
73557;SDS011;61829;53.286;10.434;2022-09-17T18:26:37;3.42;;;1.20;;
73557;SDS011;61829;53.286;10.434;2022-09-17T18:29:03;3.17;;;1.40;;
73557;SDS011;61829;53.286;10.434;2022-09-17T18:31:30;4.38;;;1.77;;
73557;SDS011;61829;53.286;10.434;2022-09-17T18:36:42;4.05;;;1.38;;
73557;SDS011;61829;53.286;10.434;2022-09-17T18:39:11;3.80;;;1.20;;
73557;SDS011;61829;53.286;10.434;2022-09-17T18:41:39;4.20;;;1.17;;
73557;SDS011;61829;53.286;10.434;2022-09-17T18:44:07;4.25;;;1.10;;
73557;SDS011;61829;53.286;10.434;2022-09-17T18:46:36;6.47;;;1.55;;
73557;SDS011;61829;53.286;10.434;2022-09-17T18:52:56;6.93;;;1.42;;
73557;SDS011;61829;53.286;10.434;2022-09-17T18:55:38;5.40;;;1.50;;
73557;SDS011;61829;53.286;10.434;2022-09-17T18:58:36;3.45;;;1.20;;
73557;SDS011;61829;53.286;10.434;2022-09-17T19:01:06;6.00;;;1.40;;
73557;SDS011;61829;53.286;10.434;2022-09-17T19:03:33;4.93;;;1.88;;
73557;SDS011;61829;53.286;10.434;2022-09-17T19:08:30;4.22;;;1.15;;
73557;SDS011;61829;53.286;10.434;2022-09-17T19:10:56;4.07;;;1.20;;
73557;SDS011;61829;53.286;10.434;2022-09-17T19:13:23;3.97;;;1.55;;
73557;SDS011;61829;53.286;10.434;2022-09-17T19:15:56;3.58;;;1.40;;
73557;SDS011;61829;53.286;10.434;2022-09-17T19:18:24;7.72;;;1.40;;
73557;SDS011;61829;53.286;10.434;2022-09-17T19:20:50;4.35;;;1.33;;
73557;SDS011;61829;53.286;10.434;2022-09-17T19:23:17;5.72;;;1.10;;
73557;SDS011;61829;53.286;10.434;2022-09-17T19:25:43;3.15;;;1.35;;
73557;SDS011;61829;53.286;10.434;2022-09-17T19:28:10;3.72;;;1.10;;
73557;SDS011;61829;53.286;10.434;2022-09-17T19:30:36;3.63;;;1.02;;
73557;SDS011;61829;53.286;10.434;2022-09-17T19:33:03;5.65;;;1.20;;
73557;SDS011;61829;53.286;10.434;2022-09-17T19:35:29;4.85;;;1.35;;
73557;SDS011;61829;53.286;10.434;2022-09-17T19:37:56;4.90;;;1.23;;
73557;SDS011;61829;53.286;10.434;2022-09-17T19:40:23;4.95;;;1.23;;
73557;SDS011;61829;53.286;10.434;2022-09-17T19:42:53;5.05;;;1.20;;
73557;SDS011;61829;53.286;10.434;2022-09-17T19:45:21;6.88;;;1.30;;
73557;SDS011;61829;53.286;10.434;2022-09-17T19:47:48;2.58;;;1.10;;
73557;SDS011;61829;53.286;10.434;2022-09-17T19:50:16;4.57;;;1.27;;
73557;SDS011;61829;53.286;10.434;2022-09-17T19:52:43;6.05;;;1.85;;
73557;SDS011;61829;53.286;10.434;2022-09-17T19:55:10;5.97;;;1.52;;
73557;SDS011;61829;53.286;10.434;2022-09-17T20:00:03;6.45;;;1.55;;
73557;SDS011;61829;53.286;10.434;2022-09-17T20:02:31;4.78;;;1.50;;
73557;SDS011;61829;53.286;10.434;2022-09-17T20:04:58;3.53;;;1.42;;
73557;SDS011;61829;53.286;10.434;2022-09-17T20:07:24;4.72;;;1.40;;